Startpagina
METAR-TAF:

METAR-TAF

Vliegvelden :

Madrid-Cuatro Vientos, Spanje

breedte: 40-23N, lengte: 003-47W, hoogte: 690 m

Actueel weer

Dit bericht is 34 minuten geleden gemaakt, om 05:00 UTC
Wind 7 kt uit het zuidwesten
Temperatuur 16°C
Vochtigheid 68%
Druk 1012 hPa
Zicht 10 km of meer
geen wolken onder 1500 m en geen cumulonimbus

METAR: LEVS 060500Z 23007KT CAVOK 16/10 Q1012

Tijdstip: 07:34 (05:34 UTC)

Verwachting

Dit bericht is 34 minuten geleden gemaakt, om 05:00 UTC
Verwachting geldig van 06 om 06 UTC tot 06 om 15 UTC
Wind 10 kt uit het westzuidwesten
Zicht 10 km of meer
geen wolken onder 1500 m en geen cumulonimbus
Kans 30% :
Tijdelijke
van 06 om 06 UTC tot 06 om 09 UTC
Wind 5 kt uit variabele richting
Kans 40% :
Tijdelijke
van 06 om 10 UTC tot 06 om 15 UTC
Wind 15 kt uit het westzuidwesten met uitschieters tot 25 kt

TAF: LEVS 060500Z 0606/0615 24010KT CAVOK PROB30 TEMPO 0606/0609 VRB05KT PROB40 TEMPO 0610/0615 24015G25KT

Waarnemingen en weersverwachtingen van meer dan 4000 vliegvelden (METAR en TAF).

De beschikbare stations zijn de gele en rode punten op de kaart.

Ga met uw muis naar het station om de naam te zien.

Klik dan om waarnemingen en weersverwachtingen te zien.

kaart wijzigen: klik op de groene knoppen met een zwart kruis om in te zoomen, op de groene knop met een streepje om uit te zoomen of op de groene pijlen voor aangrenzende kaarten.


METAR-TAF: